Time;durP1;ratioP1;P1;durP2;ratioP2;P2;SDS_P1;SDS_P2;PMS_P1;PMS_P2;Temp;Humidity;BMP_temperature;BMP_pressure;BME280_temperature;BME280_humidity;BME280_pressure;Samples;Min_cycle;Max_cycle;Signal;HPM_P1;HPM_P2
2022/11/24 00:00:05;;;;;;;12.87;4.80;;;6.60;40.10;;;;;;5086527;28;20448;-89
2022/11/24 00:02:44;;;;;;;14.53;5.37;;;6.60;40.00;;;;;;5085223;28;20411;-88
2022/11/24 00:08:31;;;;;;;14.57;4.30;;;6.50;39.90;;;;;;5081829;28;20515;-81
2022/11/24 00:11:32;;;;;;;12.13;3.90;;;6.60;40.20;;;;;;5092404;28;20464;-83
2022/11/24 00:14:19;;;;;;;15.10;4.30;;;6.60;40.00;;;;;;5081856;28;20911;-84
2022/11/24 00:17:37;;;;;;;23.97;4.87;;;6.60;40.00;;;;;;5077319;28;20425;-84
2022/11/24 00:20:14;;;;;;;25.00;5.37;;;6.60;40.10;;;;;;5075687;28;20461;-83
2022/11/24 00:26:43;;;;;;;15.23;4.37;;;6.70;40.00;;;;;;5077928;28;20474;-84
2022/11/24 00:29:20;;;;;;;10.23;5.20;;;6.80;40.00;;;;;;5088708;28;20921;-83
2022/11/24 00:32:25;;;;;;;16.40;4.57;;;6.80;40.10;;;;;;5092208;28;20437;-84
2022/11/24 00:38:28;;;;;;;13.80;4.80;;;6.90;40.30;;;;;;5087842;28;20459;-89
2022/11/24 00:44:32;;;;;;;10.30;3.87;;;6.70;40.20;;;;;;5090624;28;20408;-89
2022/11/24 00:50:56;;;;;;;29.30;4.70;;;6.70;40.10;;;;;;5087020;28;20435;-89
2022/11/24 00:57:19;;;;;;;13.90;4.20;;;6.60;40.10;;;;;;5080650;28;20793;-89
2022/11/24 01:00:20;;;;;;;11.13;4.10;;;6.60;39.90;;;;;;5094670;28;20447;-89
2022/11/24 01:03:36;;;;;;;13.80;4.70;;;6.60;40.00;;;;;;5080472;28;20443;-90
2022/11/24 01:06:51;;;;;;;16.20;4.90;;;6.50;35.90;;;;;;5079080;28;20423;-89
2022/11/24 01:09:17;;;;;;;14.97;4.47;;;6.40;28.20;;;;;;5075363;28;20744;-89
2022/11/24 01:15:05;;;;;;;25.57;4.80;;;6.40;31.00;;;;;;5074913;28;20197;-89
2022/11/24 01:17:56;;;;;;;14.40;4.00;;;6.50;32.20;;;;;;5081737;28;20903;-89
2022/11/24 01:24:08;;;;;;;11.70;4.30;;;6.60;31.40;;;;;;5086542;28;20516;-89
2022/11/24 01:40:25;;;;;;;17.83;5.33;;;6.50;23.60;;;;;;5075032;28;20459;-89
2022/11/24 01:43:13;;;;;;;14.33;4.70;;;6.50;24.20;;;;;;5073538;28;20426;-89
2022/11/24 01:46:25;;;;;;;9.57;4.67;;;6.50;28.20;;;;;;5085934;28;20527;-89
2022/11/24 01:49:25;;;;;;;8.60;4.70;;;6.50;29.40;;;;;;5082918;28;20424;-89
2022/11/24 01:52:05;;;;;;;19.50;4.47;;;6.50;28.20;;;;;;5094790;28;20462;-89
2022/11/24 01:54:37;;;;;;;12.97;4.20;;;6.60;30.20;;;;;;5091378;28;20417;-84
2022/11/24 01:57:29;;;;;;;9.20;4.20;;;6.60;34.30;;;;;;5080475;28;20431;-83
2022/11/24 02:00:06;;;;;;;16.13;4.10;;;6.60;29.00;;;;;;5094116;28;20431;-84
2022/11/24 02:02:44;;;;;;;15.90;4.90;;;6.50;29.10;;;;;;5082485;28;20421;-83
2022/11/24 02:05:45;;;;;;;20.97;4.47;;;6.50;37.40;;;;;;5085860;28;20739;-84
2022/11/24 02:08:36;;;;;;;8.33;4.50;;;6.60;39.30;;;;;;4994502;28;20541;-83
2022/11/24 02:11:14;;;;;;;24.50;6.03;;;6.60;40.00;;;;;;5002023;28;20467;-83
2022/11/24 02:14:25;;;;;;;13.63;4.30;;;6.80;40.10;;;;;;4996955;28;20490;-84
2022/11/24 02:16:56;;;;;;;14.23;4.07;;;6.90;40.30;;;;;;4993129;28;20420;-84
2022/11/24 02:19:40;;;;;;;17.53;3.50;;;7.00;40.30;;;;;;4977306;28;20452;-84
2022/11/24 02:22:52;;;;;;;13.90;3.93;;;7.10;40.40;;;;;;4996388;28;20479;-84
2022/11/24 02:35:50;;;;;;;9.37;4.13;;;7.30;40.50;;;;;;5005228;28;20434;-89
2022/11/24 02:41:41;;;;;;;26.67;4.80;;;7.40;40.60;;;;;;4997900;28;21013;-89
2022/11/24 02:47:44;;;;;;;8.40;3.33;;;7.30;40.70;;;;;;5074646;28;20480;-89
2022/11/24 02:50:55;;;;;;;10.30;3.80;;;7.40;40.60;;;;;;5081340;28;20405;-89
2022/11/24 03:06:49;;;;;;;13.60;4.40;;;7.10;33.50;;;;;;5090049;28;20494;-89
2022/11/24 03:13:19;;;;;;;28.60;4.07;;;7.10;33.60;;;;;;5083518;28;20599;-89
2022/11/24 03:19:07;;;;;;;19.77;4.30;;;6.90;24.80;;;;;;5083522;28;20879;-89
2022/11/24 03:28:17;;;;;;;15.60;4.90;;;6.70;28.30;;;;;;5081304;28;20400;-89
2022/11/24 03:31:37;;;;;;;22.97;4.20;;;6.70;30.10;;;;;;5096555;28;20940;-89
2022/11/24 03:37:55;;;;;;;6.80;3.57;;;6.60;30.20;;;;;;5076513;28;20824;-89
2022/11/24 03:41:01;;;;;;;16.03;5.17;;;6.50;30.20;;;;;;5093238;28;20492;-89
2022/11/24 03:46:50;;;;;;;13.63;4.60;;;6.40;39.80;;;;;;5076480;28;20397;-89
2022/11/24 03:49:44;;;;;;;14.33;4.70;;;6.30;39.70;;;;;;5082521;28;20421;-89
2022/11/24 03:55:32;;;;;;;21.23;6.90;;;6.40;39.90;;;;;;5093864;28;20443;-83
2022/11/24 03:58:02;;;;;;;25.83;5.53;;;6.40;39.80;;;;;;5089991;28;20429;-83
2022/11/24 04:03:49;;;;;;;26.80;5.63;;;6.30;39.70;;;;;;5076557;28;20369;-83
2022/11/24 04:06:35;;;;;;;17.73;5.60;;;6.30;57.00;;;;;;5092709;28;20420;-83
2022/11/24 04:16:19;;;;;;;30.47;6.00;;;6.50;77.60;;;;;;5083981;28;20786;-84
2022/11/24 04:18:56;;;;;;;21.53;5.00;;;6.60;85.40;;;;;;5078151;28;20413;-83
2022/11/24 04:21:26;;;;;;;21.63;5.77;;;6.70;90.10;;;;;;5091829;28;20423;-83
2022/11/24 04:24:02;;;;;;;15.63;5.03;;;6.80;91.30;;;;;;5085477;28;20820;-84
2022/11/24 04:26:38;;;;;;;44.03;5.23;;;6.90;94.60;;;;;;5076512;28;20953;-83
2022/11/24 04:29:20;;;;;;;21.77;5.33;;;6.90;93.10;;;;;;5075290;28;20971;-83
2022/11/24 04:32:37;;;;;;;22.53;5.17;;;7.10;93.00;;;;;;5082751;28;20436;-85
2022/11/24 04:35:25;;;;;;;49.60;6.27;;;7.10;93.40;;;;;;5082152;28;20489;-83
2022/11/24 04:37:51;;;;;;;24.63;4.93;;;7.20;93.50;;;;;;5077302;28;20965;-83
2022/11/24 04:41:02;;;;;;;13.47;4.17;;;7.40;93.00;;;;;;5075818;28;20485;-89
2022/11/24 04:46:49;;;;;;;16.63;4.30;;;7.50;92.20;;;;;;5075652;28;20781;-89
2022/11/24 04:56:04;;;;;;;27.67;5.47;;;7.60;85.90;;;;;;5075473;28;20447;-88
2022/11/24 04:58:56;;;;;;;19.10;4.60;;;7.70;83.30;;;;;;5084161;28;20460;-89
2022/11/24 05:01:26;;;;;;;24.77;4.90;;;7.80;79.90;;;;;;5091080;28;20420;-89
2022/11/24 05:10:36;;;;;;;12.73;4.20;;;8.00;78.20;;;;;;5075062;28;20428;-84
2022/11/24 05:16:23;;;;;;;15.23;3.77;;;8.10;72.60;;;;;;5075876;28;20228;-84
2022/11/24 05:22:11;;;;;;;26.80;4.10;;;8.10;61.20;;;;;;5094427;28;20192;-85
2022/11/24 05:25:19;;;;;;;27.30;4.47;;;8.00;61.30;;;;;;5088293;28;20926;-85
2022/11/24 05:28:14;;;;;;;21.53;4.97;;;8.00;64.40;;;;;;5080554;28;20178;-85
2022/11/24 05:31:19;;;;;;;24.83;4.40;;;8.10;61.10;;;;;;5074358;28;20496;-85
2022/11/24 05:34:32;;;;;;;23.73;4.23;;;8.10;64.30;;;;;;5089564;28;20519;-85
2022/11/24 05:37:02;;;;;;;28.83;4.30;;;8.20;66.00;;;;;;5089962;28;20420;-84
2022/11/24 05:42:50;;;;;;;23.63;4.23;;;8.40;66.20;;;;;;5074456;28;20427;-88
2022/11/24 05:59:02;;;;;;;15.00;3.20;;;8.70;41.70;;;;;;5075824;28;20447;-88
2022/11/24 06:04:50;;;;;;;20.70;4.30;;;8.80;41.80;;;;;;5088234;28;20415;-88
2022/11/24 06:08:01;;;;;;;15.83;3.57;;;8.90;42.20;;;;;;5082958;28;20425;-88
2022/11/24 06:10:32;;;;;;;24.13;3.90;;;8.90;42.10;;;;;;5079898;28;20270;-85
2022/11/24 06:16:44;;;;;;;18.17;3.13;;;8.90;41.90;;;;;;5089772;28;20383;-82
2022/11/24 06:22:57;;;;;;;19.73;3.53;;;8.90;41.90;;;;;;5089765;28;20439;-80
2022/11/24 06:25:27;;;;;;;16.03;3.20;;;9.00;41.90;;;;;;5086743;28;20428;-79
2022/11/24 06:28:19;;;;;;;25.43;3.80;;;9.00;42.10;;;;;;5078660;28;20427;-79
2022/11/24 06:30:45;;;;;;;17.50;2.90;;;9.10;33.80;;;;;;5072686;28;20421;-80
2022/11/24 06:33:38;;;;;;;16.67;2.90;;;9.00;42.00;;;;;;5074517;28;20425;-79
2022/11/24 06:36:26;;;;;;;30.33;3.03;;;9.00;42.00;;;;;;5072744;28;20190;-80
2022/11/24 06:42:44;;;;;;;20.77;3.10;;;9.00;30.10;;;;;;5080588;28;20403;-79
2022/11/24 06:45:20;;;;;;;14.80;2.83;;;9.10;29.20;;;;;;5080679;28;20429;-79
2022/11/24 06:48:14;;;;;;;11.10;2.57;;;9.10;25.90;;;;;;5078902;28;20485;-79
2022/11/24 06:50:40;;;;;;;26.17;4.20;;;9.20;25.30;;;;;;5091835;28;20427;-80
2022/11/24 06:53:06;;;;;;;17.73;3.00;;;9.20;23.90;;;;;;5075030;28;20522;-80
2022/11/24 06:59:02;;;;;;;15.60;2.83;;;9.20;22.30;;;;;;5085636;28;20875;-76
2022/11/24 07:01:29;;;;;;;13.07;2.90;;;9.10;22.60;;;;;;5084027;28;20433;-76
2022/11/24 07:03:55;;;;;;;25.47;3.53;;;9.20;22.20;;;;;;5090462;28;20477;-76
2022/11/24 07:06:32;;;;;;;19.40;3.10;;;9.20;21.10;;;;;;5084066;28;20739;-76
2022/11/24 07:09:09;;;;;;;25.53;3.70;;;9.20;21.60;;;;;;5087741;28;20801;-76
2022/11/24 07:11:44;;;;;;;21.00;3.67;;;9.30;19.90;;;;;;5096880;28;20502;-79
2022/11/24 07:14:49;;;;;;;21.20;3.60;;;9.30;17.20;;;;;;5081147;28;20435;-79
2022/11/24 07:24:02;;;;;;;12.53;2.30;;;9.40;12.80;;;;;;5089994;28;20400;-79
2022/11/24 07:26:36;;;;;;;17.13;3.03;;;9.40;13.80;;;;;;5087532;28;20423;-79
2022/11/24 07:29:03;;;;;;;20.77;3.10;;;9.30;14.40;;;;;;5076676;28;20404;-79
2022/11/24 07:35:31;;;;;;;19.83;4.03;;;9.20;18.30;;;;;;5077315;28;20431;-79
2022/11/24 07:38:08;;;;;;;21.57;3.50;;;9.20;21.00;;;;;;5089574;28;20404;-79
2022/11/24 07:40:50;;;;;;;18.90;3.40;;;9.30;20.00;;;;;;5084007;28;20454;-79
2022/11/24 07:43:20;;;;;;;7.43;2.40;;;9.30;19.60;;;;;;5092002;28;20793;-79
2022/11/24 07:46:03;;;;;;;20.03;2.70;;;9.30;17.70;;;;;;5086545;28;21032;-79
2022/11/24 07:48:32;;;;;;;16.43;3.10;;;9.30;17.80;;;;;;5088348;28;20413;-79
2022/11/24 07:51:19;;;;;;;20.83;3.70;;;9.40;16.10;;;;;;5075870;28;20382;-79
2022/11/24 07:54:02;;;;;;;13.03;3.13;;;9.30;14.50;;;;;;5083307;28;20424;-79
2022/11/24 07:56:28;;;;;;;20.37;2.87;;;9.30;16.80;;;;;;5077268;28;20967;-69
2022/11/24 07:58:54;;;;;;;9.60;2.30;;;9.40;16.40;;;;;;5095051;28;20520;-69
2022/11/24 08:01:19;;;;;;;15.83;3.27;;;9.40;14.50;;;;;;5092935;28;20261;-69
2022/11/24 08:03:46;;;;;;;15.23;2.77;;;9.50;11.80;;;;;;5089461;28;20507;-69
2022/11/24 08:06:12;;;;;;;12.17;2.40;;;9.60;10.10;;;;;;5077092;28;20425;-70
2022/11/24 08:09:31;;;;;;;11.57;2.50;;;9.60;8.30;;;;;;5082386;28;20771;-91
2022/11/24 08:11:57;;;;;;;15.90;3.47;;;9.70;8.10;;;;;;5084430;28;20935;-89
2022/11/24 08:14:38;;;;;;;14.60;2.20;;;9.80;6.70;;;;;;5081980;28;20413;-89
2022/11/24 08:17:04;;;;;;;20.37;3.10;;;9.70;5.20;;;;;;5074938;28;20175;-89
2022/11/24 08:26:17;;;;;;;16.90;3.17;;;9.80;1.00;;;;;;5077305;28;20495;-88
2022/11/24 08:32:05;;;;;;;28.40;3.23;;;9.60;1.00;;;;;;5094938;28;20395;-88
2022/11/24 08:37:56;;;;;;;10.80;2.40;;;9.50;3.30;;;;;;5078130;28;20189;-87
2022/11/24 08:40:25;;;;;;;15.70;3.00;;;9.60;3.10;;;;;;5069588;28;21072;-86
2022/11/24 08:46:56;;;;;;;11.63;2.70;;;9.60;3.40;;;;;;5080220;28;20467;-90
2022/11/24 08:49:33;;;;;;;7.23;2.60;;;9.80;2.50;;;;;;5076272;28;20939;-90
2022/11/24 08:52:20;;;;;;;10.27;2.50;;;9.80;1.00;;;;;;5080475;28;20471;-90
2022/11/24 08:58:08;;;;;;;9.50;2.00;;;9.90;1.00;;;;;;5082362;28;20806;-90
2022/11/24 09:01:02;;;;;;;13.87;2.57;;;10.00;1.00;;;;;;5081282;28;20858;-90
2022/11/24 09:03:28;;;;;;;14.77;2.40;;;10.10;1.00;;;;;;5076508;28;20455;-90
2022/11/24 09:06:35;;;;;;;7.53;2.40;;;10.10;1.00;;;;;;5086188;28;20425;-91
2022/11/24 09:09:01;;;;;;;6.77;2.40;;;10.40;1.00;;;;;;5075253;28;20339;-90
2022/11/24 09:11:32;;;;;;;10.90;1.97;;;10.50;1.00;;;;;;5075013;28;20433;-90
2022/11/24 09:14:38;;;;;;;7.33;2.03;;;10.60;1.00;;;;;;5085333;28;20920;-88
2022/11/24 09:17:03;;;;;;;7.47;2.57;;;10.60;1.00;;;;;;5077227;28;20440;-88
2022/11/24 09:22:51;;;;;;;6.80;2.00;;;10.60;1.00;;;;;;5078091;28;20241;-85
2022/11/24 09:25:56;;;;;;;14.40;1.67;;;10.80;1.00;;;;;;5079211;28;20437;-86
2022/11/24 09:28:26;;;;;;;8.23;1.83;;;10.90;1.00;;;;;;5081110;28;20169;-85
2022/11/24 09:34:14;;;;;;;7.40;1.90;;;10.90;1.00;;;;;;5087284;28;20473;-85
2022/11/24 09:36:41;;;;;;;10.47;2.47;;;10.90;1.00;;;;;;5078536;28;20460;-72
2022/11/24 09:39:06;;;;;;;8.00;2.67;;;10.50;1.00;;;;;;5076058;28;22038;-71
2022/11/24 09:42:30;;;;;;;7.50;2.20;;;10.70;1.00;;;;;;5076294;28;20493;-71
2022/11/24 09:45:17;;;;;;;7.07;1.93;;;10.60;1.00;;;;;;4996904;28;20198;-72
2022/11/24 09:48:02;;;;;;;8.57;2.20;;;10.80;1.00;;;;;;4995678;28;20427;-72
2022/11/24 09:50:32;;;;;;;8.10;2.17;;;10.70;1.00;;;;;;4992270;28;20442;-72
2022/11/24 09:53:24;;;;;;;8.43;2.17;;;10.70;1.00;;;;;;4993922;28;20537;-72
2022/11/24 09:55:53;;;;;;;8.23;1.83;;;10.90;1.00;;;;;;5003266;28;20449;-72
2022/11/24 09:58:34;;;;;;;6.33;2.10;;;10.90;1.00;;;;;;4993009;28;20464;-73
2022/11/24 10:01:00;;;;;;;4.43;1.57;;;10.90;1.00;;;;;;4999630;28;20563;-73
2022/11/24 10:03:33;;;;;;;7.60;1.87;;;11.00;1.00;;;;;;4992265;28;20843;-73
2022/11/24 10:06:03;;;;;;;9.83;1.53;;;11.00;1.00;;;;;;4997017;28;20415;-73
2022/11/24 10:08:34;;;;;;;11.03;2.50;;;10.90;1.00;;;;;;5002517;28;20519;-73
2022/11/24 10:11:03;;;;;;;4.83;1.30;;;11.00;1.00;;;;;;5002398;28;20445;-73
2022/11/24 10:13:37;;;;;;;7.07;1.83;;;10.90;1.00;;;;;;5003611;28;20445;-73
2022/11/24 10:16:16;;;;;;;7.80;2.03;;;10.90;1.00;;;;;;5068658;28;20446;-73
2022/11/24 10:18:44;;;;;;;12.00;2.10;;;10.90;1.00;;;;;;5078428;28;20894;-73
2022/11/24 10:21:40;;;;;;;10.97;2.00;;;11.00;1.00;;;;;;5075044;28;20553;-73
2022/11/24 10:24:31;;;;;;;14.73;1.30;;;11.10;1.00;;;;;;5086649;28;20481;-72
2022/11/24 10:27:17;;;;;;;14.00;2.50;;;11.20;1.00;;;;;;5086379;28;20435;-74
2022/11/24 10:29:50;;;;;;;6.83;1.50;;;11.40;1.00;;;;;;5085880;28;20495;-73
2022/11/24 10:32:39;;;;;;;5.90;2.20;;;11.40;1.00;;;;;;5081848;28;20577;-73
2022/11/24 10:35:45;;;;;;;8.13;1.80;;;11.30;1.00;;;;;;5091646;28;20435;-73
2022/11/24 10:38:20;;;;;;;6.20;1.83;;;11.50;1.00;;;;;;5082853;28;20535;-71
2022/11/24 10:40:50;;;;;;;6.27;1.30;;;11.70;1.00;;;;;;5094263;28;20460;-71
2022/11/24 10:43:16;;;;;;;5.10;1.67;;;11.80;1.00;;;;;;5082576;28;20859;-71
2022/11/24 10:45:42;;;;;;;10.47;1.93;;;11.80;1.00;;;;;;5079704;28;20524;-71
2022/11/24 10:48:15;;;;;;;12.50;2.40;;;11.90;1.00;;;;;;5087969;28;20194;-71
2022/11/24 10:50:41;;;;;;;11.83;1.50;;;12.00;1.00;;;;;;5084978;28;20529;-71
2022/11/24 10:53:07;;;;;;;10.73;2.03;;;12.00;1.00;;;;;;5079677;28;20436;-71
2022/11/24 10:56:03;;;;;;;9.90;1.80;;;12.00;1.00;;;;;;5078573;28;20445;-71
2022/11/24 10:58:35;;;;;;;5.40;1.47;;;12.10;1.00;;;;;;5008528;28;20295;-72
2022/11/24 11:01:28;;;;;;;9.73;1.93;;;12.40;1.00;;;;;;5015866;28;20529;-75
2022/11/24 11:03:57;;;;;;;10.37;1.93;;;12.40;1.00;;;;;;4960800;28;20505;-72
2022/11/24 11:06:30;;;;;;;3.73;1.30;;;12.30;1.00;;;;;;4948438;28;20442;-72
2022/11/24 11:09:20;;;;;;;8.17;1.97;;;12.30;1.00;;;;;;4945804;29;20445;-72
2022/11/24 11:11:47;;;;;;;4.27;1.37;;;12.20;1.00;;;;;;4952628;28;20446;-72
2022/11/24 11:14:29;;;;;;;4.77;1.40;;;12.10;1.00;;;;;;4959352;28;20426;-71
2022/11/24 11:16:56;;;;;;;7.20;1.90;;;12.20;1.00;;;;;;4946240;28;20470;-71
2022/11/24 11:19:38;;;;;;;7.30;1.67;;;12.30;1.00;;;;;;4956869;28;21056;-71
2022/11/24 11:22:28;;;;;;;11.60;2.27;;;12.50;1.00;;;;;;4954949;28;20447;-71
2022/11/24 11:25:20;;;;;;;5.20;1.63;;;12.30;1.00;;;;;;4948306;28;20450;-70
2022/11/24 11:27:49;;;;;;;7.70;1.73;;;12.20;1.00;;;;;;4900289;29;20441;-71
2022/11/24 11:30:15;;;;;;;9.67;1.70;;;12.10;1.00;;;;;;4899778;29;21312;-72
2022/11/24 11:32:56;;;;;;;8.07;1.50;;;12.00;1.00;;;;;;4893824;29;20455;-72
2022/11/24 11:35:27;;;;;;;7.03;1.23;;;11.90;1.00;;;;;;4937398;28;20458;-72
2022/11/24 11:38:02;;;;;;;5.90;1.20;;;11.60;1.00;;;;;;4952343;28;20494;-72
2022/11/24 11:40:30;;;;;;;6.07;1.57;;;11.50;1.00;;;;;;4974807;28;20977;-72
2022/11/24 11:43:10;;;;;;;7.00;1.40;;;11.50;1.00;;;;;;5011453;28;20901;-71
2022/11/24 11:45:42;;;;;;;10.20;1.70;;;11.60;1.00;;;;;;5001390;28;20525;-71
2022/11/24 11:48:28;;;;;;;5.90;1.67;;;11.80;1.00;;;;;;5009510;28;20439;-71
2022/11/24 11:51:08;;;;;;;7.77;1.70;;;11.90;1.00;;;;;;5011043;28;20470;-71
2022/11/24 11:53:44;;;;;;;7.40;1.00;;;12.10;1.00;;;;;;5007352;28;20490;-72
2022/11/24 11:56:21;;;;;;;5.77;1.27;;;12.30;1.00;;;;;;5008959;28;20440;-71
2022/11/24 11:59:21;;;;;;;9.83;1.50;;;12.20;1.00;;;;;;5014100;28;20447;-86
2022/11/24 12:05:22;;;;;;;6.33;1.43;;;12.60;1.00;;;;;;4997439;28;20471;-87
2022/11/24 12:11:25;;;;;;;2.90;1.00;;;12.40;1.00;;;;;;5014047;28;20451;-87
2022/11/24 12:14:15;;;;;;;3.70;1.10;;;12.30;1.00;;;;;;5004557;28;20436;-86
2022/11/24 12:20:57;;;;;;;7.87;1.50;;;12.20;1.00;;;;;;5014000;28;20477;-87
2022/11/24 12:24:15;;;;;;;7.73;1.57;;;12.30;1.00;;;;;;4996705;28;20405;-86
2022/11/24 12:27:07;;;;;;;3.93;1.77;;;12.40;1.00;;;;;;4997005;28;20424;-85
2022/11/24 12:30:14;;;;;;;5.43;1.57;;;12.50;1.00;;;;;;5004567;28;20919;-86
2022/11/24 12:36:40;;;;;;;7.60;2.10;;;12.50;1.00;;;;;;5013165;28;20494;-89
2022/11/24 12:39:23;;;;;;;7.87;1.53;;;12.60;1.00;;;;;;5081619;28;20927;-87
2022/11/24 12:42:16;;;;;;;7.90;1.30;;;12.70;1.00;;;;;;5078099;28;20439;-84
2022/11/24 12:44:55;;;;;;;5.60;1.80;;;12.80;1.00;;;;;;5078070;28;20419;-85
2022/11/24 12:47:33;;;;;;;1.10;0.90;;;12.70;1.00;;;;;;5075703;28;20508;-82
2022/11/24 12:50:21;;;;;;;9.93;1.20;;;12.70;1.00;;;;;;5076195;28;20427;-80
2022/11/24 12:52:52;;;;;;;6.80;1.80;;;12.60;1.00;;;;;;5088012;28;20511;-81
2022/11/24 12:55:21;;;;;;;5.13;1.10;;;12.60;1.00;;;;;;5075822;28;20413;-82
2022/11/24 12:58:27;;;;;;;6.10;1.77;;;12.70;1.00;;;;;;5087129;28;20447;-82
2022/11/24 13:01:05;;;;;;;2.23;1.10;;;12.70;1.00;;;;;;5075109;28;20452;-82
2022/11/24 13:03:46;;;;;;;7.50;1.40;;;12.70;1.00;;;;;;5085530;28;20421;-81
2022/11/24 13:06:22;;;;;;;6.67;1.00;;;12.60;1.00;;;;;;5079606;28;20425;-81
2022/11/24 13:08:48;;;;;;;5.47;1.40;;;12.70;1.00;;;;;;5090343;28;20427;-83
2022/11/24 13:11:22;;;;;;;4.37;1.30;;;12.70;1.00;;;;;;5086039;28;20433;-83
2022/11/24 13:14:11;;;;;;;10.10;1.50;;;12.70;1.00;;;;;;5073808;28;20383;-82
2022/11/24 13:16:53;;;;;;;5.13;1.37;;;12.70;1.00;;;;;;5077540;28;20425;-82
2022/11/24 13:19:21;;;;;;;6.90;1.00;;;12.60;1.00;;;;;;5083517;28;20460;-82
2022/11/24 13:21:57;;;;;;;3.57;1.20;;;12.70;1.00;;;;;;5076546;28;20409;-83
2022/11/24 13:24:35;;;;;;;7.80;1.60;;;12.60;1.00;;;;;;5072970;28;20417;-84
2022/11/24 13:27:14;;;;;;;2.20;1.07;;;12.60;1.00;;;;;;5073695;28;20441;-84
2022/11/24 13:29:41;;;;;;;7.13;1.27;;;12.70;1.00;;;;;;5073324;28;20433;-84
2022/11/24 13:32:10;;;;;;;4.80;1.33;;;12.70;1.00;;;;;;5073736;28;20908;-85
2022/11/24 13:34:39;;;;;;;5.27;0.97;;;12.50;1.00;;;;;;5076862;28;20440;-84
2022/11/24 13:37:18;;;;;;;5.27;1.10;;;12.40;1.00;;;;;;5084296;28;20437;-84
2022/11/24 13:39:55;;;;;;;7.90;1.00;;;12.30;1.00;;;;;;5072888;28;20455;-83
2022/11/24 13:42:25;;;;;;;5.90;1.10;;;12.20;1.00;;;;;;5082132;28;20516;-83
2022/11/24 13:44:56;;;;;;;3.23;1.23;;;12.30;1.00;;;;;;5074124;28;20409;-83
2022/11/24 13:47:41;;;;;;;3.77;1.17;;;12.30;1.00;;;;;;5082669;28;20429;-83
2022/11/24 13:50:18;;;;;;;6.70;1.13;;;12.40;1.00;;;;;;5075497;28;20791;-83
2022/11/24 13:53:15;;;;;;;3.27;1.03;;;12.50;1.00;;;;;;5076144;28;20512;-83
2022/11/24 13:55:53;;;;;;;4.50;1.30;;;12.50;1.00;;;;;;5074455;28;20444;-83
2022/11/24 13:58:30;;;;;;;10.73;1.47;;;12.50;1.00;;;;;;5072152;28;20447;-82
2022/11/24 14:01:17;;;;;;;4.83;0.90;;;12.30;1.00;;;;;;5074178;28;20518;-81
2022/11/24 14:04:03;;;;;;;5.10;1.00;;;12.10;1.00;;;;;;5072510;28;20413;-82
2022/11/24 14:06:42;;;;;;;9.17;1.20;;;12.00;1.00;;;;;;5073267;28;20511;-81
2022/11/24 14:09:34;;;;;;;8.87;0.90;;;11.90;1.00;;;;;;5080299;28;20455;-81
2022/11/24 14:12:25;;;;;;;8.53;1.33;;;11.70;1.00;;;;;;5009687;28;20953;-82
2022/11/24 14:14:55;;;;;;;6.10;1.20;;;11.60;1.00;;;;;;5010583;28;20472;-86
2022/11/24 14:17:51;;;;;;;3.33;1.40;;;11.40;1.00;;;;;;5018875;28;20439;-86
2022/11/24 14:20:51;;;;;;;3.83;1.20;;;11.50;1.00;;;;;;5012581;28;20451;-86
2022/11/24 14:23:22;;;;;;;3.30;1.07;;;11.40;1.00;;;;;;5020144;28;20440;-82
2022/11/24 14:25:58;;;;;;;3.90;1.27;;;11.30;1.00;;;;;;5015968;28;20435;-82
2022/11/24 14:29:09;;;;;;;4.17;1.00;;;11.40;1.00;;;;;;5019750;28;20476;-82
2022/11/24 14:31:35;;;;;;;4.47;1.30;;;11.30;1.00;;;;;;5018932;28;20522;-78
2022/11/24 14:34:23;;;;;;;9.13;1.10;;;11.40;1.00;;;;;;5013727;28;20441;-78
2022/11/24 14:36:50;;;;;;;7.40;1.20;;;11.50;1.00;;;;;;4998461;28;20426;-79
2022/11/24 14:39:24;;;;;;;7.20;1.03;;;11.40;1.00;;;;;;5021775;28;20412;-84
2022/11/24 14:45:16;;;;;;;8.93;1.60;;;11.40;1.00;;;;;;5025252;28;21020;-81
2022/11/24 14:48:14;;;;;;;10.33;1.40;;;11.30;1.00;;;;;;5004801;28;20486;-82
2022/11/24 14:50:40;;;;;;;4.53;1.23;;;11.20;1.00;;;;;;5075903;28;20441;-80
2022/11/24 14:53:12;;;;;;;1.67;0.90;;;11.20;1.00;;;;;;5084773;28;20791;-82
2022/11/24 14:55:41;;;;;;;4.87;0.97;;;11.20;1.00;;;;;;5073649;28;20925;-82
2022/11/24 14:58:28;;;;;;;7.23;0.93;;;11.10;1.00;;;;;;5072622;28;20535;-85
2022/11/24 15:01:31;;;;;;;5.90;1.13;;;11.00;1.00;;;;;;5085348;28;20801;-82
2022/11/24 15:04:24;;;;;;;7.10;1.73;;;10.90;1.00;;;;;;5076611;28;20494;-82
2022/11/24 15:07:21;;;;;;;4.93;0.90;;;10.90;1.00;;;;;;5074018;28;20425;-82
2022/11/24 15:09:53;;;;;;;6.67;1.20;;;10.80;1.00;;;;;;5088822;28;20421;-80
2022/11/24 15:12:40;;;;;;;7.53;1.40;;;10.80;1.00;;;;;;5083326;28;20914;-75
2022/11/24 15:15:21;;;;;;;4.80;1.30;;;10.70;1.00;;;;;;5076802;28;20462;-74
2022/11/24 15:17:59;;;;;;;4.43;1.00;;;10.70;1.00;;;;;;5090819;28;20443;-81
2022/11/24 15:20:44;;;;;;;5.00;1.17;;;10.70;1.00;;;;;;5085694;28;20452;-76
2022/11/24 15:23:24;;;;;;;2.50;1.27;;;10.70;1.00;;;;;;5081772;28;20642;-75
2022/11/24 15:26:00;;;;;;;6.20;1.30;;;10.60;1.00;;;;;;5082321;28;20421;-76
2022/11/24 15:28:29;;;;;;;6.70;1.20;;;10.40;1.00;;;;;;5075882;28;20416;-76
2022/11/24 15:31:05;;;;;;;12.33;1.50;;;10.30;1.00;;;;;;5090891;28;20504;-77
2022/11/24 15:33:31;;;;;;;7.07;1.30;;;10.10;1.00;;;;;;5078167;28;20435;-76
2022/11/24 15:35:58;;;;;;;7.93;1.20;;;10.00;1.00;;;;;;5086515;28;20920;-75
2022/11/24 15:38:24;;;;;;;6.63;1.23;;;9.80;1.00;;;;;;5075749;28;20458;-76
2022/11/24 15:40:51;;;;;;;4.00;1.40;;;9.70;1.00;;;;;;5083323;28;20447;-76
2022/11/24 15:43:38;;;;;;;4.80;1.20;;;9.70;1.00;;;;;;5079998;28;20182;-77
2022/11/24 15:46:05;;;;;;;5.00;1.43;;;9.60;1.00;;;;;;5100813;28;20411;-75
2022/11/24 15:48:31;;;;;;;4.43;1.50;;;9.50;1.00;;;;;;5086917;28;20749;-75
2022/11/24 15:50:59;;;;;;;7.13;1.53;;;9.50;1.00;;;;;;5083994;28;20440;-75
2022/11/24 15:53:48;;;;;;;17.83;1.70;;;9.30;1.00;;;;;;5082136;28;20178;-77
2022/11/24 15:56:24;;;;;;;3.53;1.00;;;9.30;1.00;;;;;;5075478;28;20447;-78
2022/11/24 15:58:50;;;;;;;12.83;2.03;;;9.20;1.00;;;;;;5076936;28;20447;-76
2022/11/24 16:01:16;;;;;;;5.77;1.30;;;9.10;1.00;;;;;;5079654;28;20972;-84
2022/11/24 16:03:41;;;;;;;9.40;1.20;;;9.10;1.00;;;;;;5075503;28;20429;-87
2022/11/24 16:06:13;;;;;;;7.47;1.60;;;8.90;1.00;;;;;;5075340;28;20179;-87
2022/11/24 16:08:38;;;;;;;5.07;1.40;;;8.80;1.00;;;;;;5084417;28;20258;-87
2022/11/24 16:11:10;;;;;;;5.73;1.20;;;8.80;1.00;;;;;;5084346;28;20516;-87
2022/11/24 16:13:35;;;;;;;4.90;1.77;;;8.70;1.00;;;;;;5078767;28;20187;-87
2022/11/24 16:16:04;;;;;;;3.97;1.20;;;8.60;1.00;;;;;;5078776;28;20420;-78
2022/11/24 16:18:30;;;;;;;10.67;1.70;;;8.60;1.00;;;;;;5084691;28;20658;-75
2022/11/24 16:20:56;;;;;;;8.37;1.43;;;8.50;1.00;;;;;;5074053;28;20509;-75
2022/11/24 16:23:22;;;;;;;7.83;1.87;;;8.40;1.00;;;;;;5086392;28;20428;-75
2022/11/24 16:25:48;;;;;;;6.17;1.53;;;8.30;1.00;;;;;;5080832;28;20433;-75
2022/11/24 16:28:14;;;;;;;4.50;1.40;;;8.30;1.00;;;;;;5075681;28;20182;-75
2022/11/24 16:30:39;;;;;;;7.57;2.07;;;8.20;1.00;;;;;;5079358;28;20206;-75
2022/11/24 16:33:05;;;;;;;2.40;1.13;;;8.30;1.00;;;;;;5081047;28;20175;-75
2022/11/24 16:35:31;;;;;;;7.10;1.50;;;8.10;1.00;;;;;;5073255;28;20266;-75
2022/11/24 16:37:57;;;;;;;18.23;2.53;;;8.20;1.00;;;;;;5074513;28;20820;-75
2022/11/24 16:40:22;;;;;;;5.20;1.43;;;8.00;1.00;;;;;;5080788;28;20460;-75
2022/11/24 16:42:48;;;;;;;8.83;1.80;;;7.90;1.00;;;;;;5084841;28;20177;-75
2022/11/24 16:45:14;;;;;;;7.10;1.23;;;7.80;1.00;;;;;;5082522;28;20228;-75
2022/11/24 16:47:40;;;;;;;7.30;1.97;;;7.80;1.00;;;;;;5076564;28;20179;-86
2022/11/24 16:50:08;;;;;;;6.73;1.93;;;7.90;1.00;;;;;;5079318;28;20179;-87
2022/11/24 16:52:34;;;;;;;3.87;1.50;;;7.60;1.00;;;;;;5079566;28;20421;-87
2022/11/24 16:55:00;;;;;;;10.20;1.60;;;7.80;1.00;;;;;;5079681;28;21341;-86
2022/11/24 16:57:26;;;;;;;7.30;2.10;;;7.70;1.00;;;;;;5084704;28;20206;-87
2022/11/24 16:59:51;;;;;;;15.90;2.33;;;7.50;1.00;;;;;;5076428;28;20507;-87
2022/11/24 17:02:17;;;;;;;4.50;1.80;;;7.50;1.00;;;;;;5073934;28;20178;-86
2022/11/24 17:04:44;;;;;;;7.33;1.80;;;7.40;1.00;;;;;;5074878;28;20202;-87
2022/11/24 17:07:09;;;;;;;6.73;1.30;;;7.50;1.00;;;;;;5073561;28;20637;-87
2022/11/24 17:09:35;;;;;;;9.50;1.70;;;7.40;1.00;;;;;;5086472;28;20468;-85
2022/11/24 17:12:01;;;;;;;9.10;2.10;;;7.40;1.00;;;;;;5079085;28;20166;-87
2022/11/24 17:14:26;;;;;;;7.60;1.50;;;7.30;1.00;;;;;;5086171;28;20181;-87
2022/11/24 17:16:52;;;;;;;12.53;1.40;;;7.40;1.00;;;;;;5083817;28;20255;-75
2022/11/24 17:19:18;;;;;;;6.93;2.07;;;7.10;1.00;;;;;;5074899;28;20198;-75
2022/11/24 17:21:43;;;;;;;6.93;1.97;;;7.20;1.00;;;;;;5076425;28;20173;-75
2022/11/24 17:24:14;;;;;;;7.30;1.67;;;7.00;1.00;;;;;;5076012;28;20538;-75
2022/11/24 17:26:40;;;;;;;8.97;1.63;;;7.00;1.00;;;;;;5076920;28;20170;-75
2022/11/24 17:29:05;;;;;;;10.40;1.80;;;6.90;1.00;;;;;;5079348;28;20494;-75
2022/11/24 17:31:34;;;;;;;5.10;1.87;;;6.80;1.00;;;;;;5080680;28;20456;-74
2022/11/24 17:34:01;;;;;;;16.53;2.70;;;6.90;1.00;;;;;;5074932;28;20721;-84